createdAt,value
2023-04-18T00:01:47.377Z,3.77
2023-04-18T00:04:18.546Z,3.77
2023-04-18T00:06:49.744Z,3.84
2023-04-18T00:09:17.863Z,3.92
2023-04-18T00:11:46.012Z,3.95
2023-04-18T00:14:14.494Z,3.97
2023-04-18T00:19:11.391Z,3.96
2023-04-18T00:21:45.059Z,3.94
2023-04-18T00:24:13.739Z,3.89
2023-04-18T00:26:41.986Z,3.91
2023-04-18T00:29:10.103Z,3.91
2023-04-18T00:31:38.301Z,3.93
2023-04-18T00:34:06.516Z,3.91
2023-04-18T00:36:34.625Z,3.91
2023-04-18T00:39:04.249Z,3.94
2023-04-18T00:41:32.343Z,3.94
2023-04-18T00:44:00.515Z,3.95
2023-04-18T00:46:28.742Z,3.92
2023-04-18T00:48:57.133Z,3.91
2023-04-18T00:51:25.743Z,3.83
2023-04-18T00:53:55.406Z,3.80
2023-04-18T00:56:25.951Z,3.75
2023-04-18T00:58:54.634Z,3.70
2023-04-18T01:01:23.417Z,3.66
2023-04-18T01:03:51.737Z,3.65
2023-04-18T01:06:20.516Z,3.67
2023-04-18T01:08:48.821Z,3.68
2023-04-18T01:11:19.288Z,3.71
2023-04-18T01:14:01.754Z,3.65
2023-04-18T01:16:32.668Z,3.66
2023-04-18T01:19:01.522Z,3.63
2023-04-18T01:21:31.165Z,3.64
2023-04-18T01:24:01.885Z,3.69
2023-04-18T01:26:31.494Z,3.71
2023-04-18T01:28:59.573Z,3.72
2023-04-18T01:31:27.788Z,3.71
2023-04-18T01:33:56.003Z,3.72
2023-04-18T01:36:24.068Z,3.74
2023-04-18T01:38:52.164Z,3.75
2023-04-18T01:41:20.353Z,3.75
2023-04-18T01:43:51.135Z,3.78
2023-04-18T01:46:19.656Z,3.78
2023-04-18T01:48:47.784Z,3.83
2023-04-18T01:51:16.127Z,3.79
2023-04-18T01:53:44.193Z,3.79
2023-04-18T01:56:12.434Z,3.76
2023-04-18T01:58:41.651Z,3.78
2023-04-18T02:01:11.303Z,3.75
2023-04-18T02:03:40.037Z,3.67
2023-04-18T02:06:08.775Z,3.66
2023-04-18T02:08:36.900Z,3.67
2023-04-18T02:11:06.475Z,3.67
2023-04-18T02:13:34.549Z,3.70
2023-04-18T02:16:14.756Z,3.72
2023-04-18T02:18:45.482Z,3.72
2023-04-18T02:21:15.054Z,3.67
2023-04-18T02:23:43.124Z,3.69
2023-04-18T02:26:11.174Z,3.66
2023-04-18T02:28:39.915Z,3.72
2023-04-18T02:31:14.514Z,3.75
2023-04-18T02:33:45.087Z,3.74
2023-04-18T02:36:13.966Z,3.75
2023-04-18T02:38:44.976Z,3.80
2023-04-18T02:41:17.418Z,3.78
2023-04-18T02:43:45.624Z,3.78
2023-04-18T02:46:16.211Z,3.75
2023-04-18T02:48:48.281Z,3.77
2023-04-18T02:51:20.036Z,3.79
2023-04-18T02:53:49.001Z,3.85
2023-04-18T02:56:18.931Z,3.83
2023-04-18T02:59:07.933Z,3.85
2023-04-18T03:01:54.863Z,3.88
2023-04-18T03:04:25.538Z,3.92
2023-04-18T03:07:03.134Z,3.97
2023-04-18T03:09:37.025Z,3.99
2023-04-18T03:12:13.778Z,3.95
2023-04-18T03:14:44.516Z,3.98
2023-04-18T03:17:15.092Z,4.00
2023-04-18T03:19:49.531Z,4.02
2023-04-18T03:22:21.091Z,4.01
2023-04-18T03:24:55.426Z,4.03
2023-04-18T03:27:32.200Z,4.09
2023-04-18T03:30:00.632Z,4.09
2023-04-18T03:32:29.029Z,4.11
2023-04-18T03:34:58.545Z,4.16
2023-04-18T03:37:26.905Z,4.21
2023-04-18T03:39:57.311Z,4.25
2023-04-18T03:42:28.593Z,4.28
2023-04-18T03:44:56.849Z,4.30
2023-04-18T03:47:25.073Z,4.32
2023-04-18T03:49:58.576Z,4.33
2023-04-18T03:52:29.754Z,4.35
2023-04-18T03:54:58.266Z,4.38
2023-04-18T03:57:31.597Z,4.41
2023-04-18T04:00:00.967Z,4.41
2023-04-18T04:02:32.329Z,4.42
2023-04-18T04:05:02.748Z,4.45
2023-04-18T04:07:31.447Z,4.47
2023-04-18T04:09:59.830Z,4.47
2023-04-18T04:12:28.494Z,4.49
2023-04-18T04:14:56.738Z,4.51
2023-04-18T04:17:25.232Z,4.53
2023-04-18T04:19:54.298Z,4.54
2023-04-18T04:22:24.228Z,4.56
2023-04-18T04:24:53.072Z,4.58
2023-04-18T04:27:28.176Z,4.56
2023-04-18T04:29:57.660Z,4.56
2023-04-18T04:32:27.487Z,4.60
2023-04-18T04:34:56.328Z,4.59
2023-04-18T04:37:26.424Z,4.59
2023-04-18T04:40:10.974Z,4.60
2023-04-18T04:42:58.599Z,4.60
2023-04-18T04:45:33.467Z,4.62
2023-04-18T04:48:01.754Z,4.64
2023-04-18T04:50:30.043Z,4.64
2023-04-18T04:52:59.463Z,4.63
2023-04-18T04:55:27.582Z,4.58
2023-04-18T04:57:55.920Z,4.55
2023-04-18T05:00:37.422Z,4.56
2023-04-18T05:03:05.902Z,4.52
2023-04-18T05:05:34.171Z,4.54
2023-04-18T05:08:03.972Z,4.52
2023-04-18T05:10:32.624Z,4.54
2023-04-18T05:13:00.909Z,4.53
2023-04-18T05:15:29.187Z,4.51
2023-04-18T05:17:57.336Z,4.50
2023-04-18T05:20:25.788Z,4.45
2023-04-18T05:22:54.137Z,4.44
2023-04-18T05:25:23.502Z,4.47
2023-04-18T05:27:52.076Z,4.46
2023-04-18T05:30:20.561Z,4.45
2023-04-18T05:32:48.710Z,4.45
2023-04-18T05:35:16.841Z,4.45
2023-04-18T05:37:44.943Z,4.43
2023-04-18T05:40:14.434Z,4.45
2023-04-18T05:42:44.006Z,4.44
2023-04-18T05:45:13.413Z,4.44
2023-04-18T05:47:41.634Z,4.42
2023-04-18T05:50:10.507Z,4.44
2023-04-18T05:52:39.255Z,4.46
2023-04-18T05:55:08.078Z,4.48
2023-04-18T05:57:36.323Z,4.50
2023-04-18T06:00:07.533Z,4.51
2023-04-18T06:02:40.917Z,4.52
2023-04-18T06:05:10.269Z,4.51
2023-04-18T06:07:38.569Z,4.53
2023-04-18T06:10:11.197Z,4.57
2023-04-18T06:12:39.309Z,4.58
2023-04-18T06:15:09.823Z,4.58
2023-04-18T06:17:38.096Z,4.56
2023-04-18T06:20:06.929Z,4.56
2023-04-18T06:22:35.134Z,4.58
2023-04-18T06:25:03.548Z,4.59
2023-04-18T06:27:32.209Z,4.63
2023-04-18T06:30:00.715Z,4.66
2023-04-18T06:32:30.187Z,4.68
2023-04-18T06:34:58.326Z,4.69
2023-04-18T06:37:26.544Z,4.70
2023-04-18T06:39:54.758Z,4.70
2023-04-18T06:42:23.019Z,4.72
2023-04-18T06:44:51.281Z,4.71
2023-04-18T06:47:19.502Z,4.73
2023-04-18T06:49:49.070Z,4.76
2023-04-18T06:52:17.405Z,4.80
2023-04-18T06:54:45.518Z,4.81
2023-04-18T06:57:14.160Z,4.80
2023-04-18T06:59:42.501Z,4.79
2023-04-18T07:02:10.603Z,4.73
2023-04-18T07:04:38.824Z,4.74
2023-04-18T07:07:08.404Z,4.79
2023-04-18T07:09:36.501Z,4.84
2023-04-18T07:12:04.792Z,4.89
2023-04-18T07:14:34.228Z,4.95
2023-04-18T07:17:02.962Z,4.99
2023-04-18T07:19:31.174Z,5.07
2023-04-18T07:21:59.348Z,5.05
2023-04-18T07:24:28.804Z,5.09
2023-04-18T07:26:56.950Z,5.14
2023-04-18T07:29:25.104Z,5.15
2023-04-18T07:31:53.357Z,5.25
2023-04-18T07:34:22.975Z,5.23
2023-04-18T07:36:51.351Z,5.23
2023-04-18T07:39:19.535Z,5.27
2023-04-18T07:41:49.067Z,5.33
2023-04-18T07:44:17.102Z,5.39
2023-04-18T07:46:45.460Z,5.37
2023-04-18T07:49:13.778Z,5.45
2023-04-18T07:51:43.250Z,5.56
2023-04-18T07:54:12.272Z,5.60
2023-04-18T07:56:41.036Z,5.67
2023-04-18T07:59:10.630Z,5.77
2023-04-18T08:01:38.860Z,5.82
2023-04-18T08:04:07.364Z,5.94
2023-04-18T08:06:35.832Z,6.00
2023-04-18T08:09:05.814Z,5.96
2023-04-18T08:11:34.564Z,6.02
2023-04-18T08:14:02.945Z,6.26
2023-04-18T08:16:32.542Z,6.42
2023-04-18T08:19:00.816Z,6.41
2023-04-18T08:21:29.094Z,6.19
2023-04-18T08:23:57.165Z,6.04
2023-04-18T08:26:25.386Z,5.99
2023-04-18T08:28:53.476Z,5.97
2023-04-18T08:31:22.076Z,5.95
2023-04-18T08:33:51.617Z,6.06
2023-04-18T08:36:19.766Z,6.25
2023-04-18T08:38:47.798Z,6.46
2023-04-18T08:41:20.811Z,6.63
2023-04-18T08:43:49.173Z,6.65
2023-04-18T08:46:17.472Z,6.63
2023-04-18T08:48:46.864Z,6.71
2023-04-18T08:51:16.233Z,6.85
2023-04-18T08:53:45.365Z,6.82
2023-04-18T08:56:14.756Z,6.88
2023-04-18T08:58:45.214Z,6.96
2023-04-18T09:01:13.834Z,7.09
2023-04-18T09:03:44.135Z,7.23
2023-04-18T09:06:16.263Z,7.46
2023-04-18T09:08:57.531Z,7.68
2023-04-18T09:11:29.101Z,7.57
2023-04-18T09:13:59.373Z,7.47
2023-04-18T09:16:29.313Z,7.33
2023-04-18T09:19:18.766Z,7.37
2023-04-18T09:21:48.877Z,7.71
2023-04-18T09:24:24.328Z,7.76
2023-04-18T09:26:55.931Z,7.84
2023-04-18T09:29:42.396Z,7.86
2023-04-18T09:32:11.287Z,7.92
2023-04-18T09:34:43.554Z,7.81
2023-04-18T09:37:12.765Z,8.18
2023-04-18T09:39:45.323Z,8.49
2023-04-18T09:42:13.959Z,8.72
2023-04-18T09:45:00.856Z,8.71
2023-04-18T09:47:29.520Z,8.95
2023-04-18T09:49:57.737Z,8.97
2023-04-18T09:52:26.967Z,8.72
2023-04-18T09:54:59.524Z,8.46
2023-04-18T09:57:30.334Z,8.58
2023-04-18T10:00:08.721Z,8.85
2023-04-18T10:02:52.185Z,9.12
2023-04-18T10:05:21.933Z,9.53
2023-04-18T10:07:51.698Z,9.68
2023-04-18T10:10:21.823Z,9.27
2023-04-18T10:12:51.533Z,8.95
2023-04-18T10:15:22.279Z,9.36
2023-04-18T10:18:04.206Z,9.70
2023-04-18T10:20:35.590Z,10.00
2023-04-18T10:23:34.659Z,10.31
2023-04-18T10:26:04.928Z,10.34
2023-04-18T10:28:51.124Z,10.47
2023-04-18T10:31:19.616Z,10.55
2023-04-18T10:34:00.734Z,10.91
2023-04-18T10:36:32.645Z,10.93
2023-04-18T10:39:03.261Z,10.75
2023-04-18T10:41:33.823Z,10.93
2023-04-18T10:44:22.552Z,11.24
2023-04-18T10:47:28.278Z,11.35
2023-04-18T10:49:59.000Z,11.18
2023-04-18T10:52:29.666Z,11.09
2023-04-18T10:55:08.774Z,11.13
2023-04-18T10:57:42.228Z,11.10
2023-04-18T11:00:13.828Z,10.90
2023-04-18T11:02:51.892Z,10.98
2023-04-18T11:05:23.041Z,10.90
2023-04-18T11:07:52.038Z,11.07
2023-04-18T11:10:21.509Z,11.11
2023-04-18T11:12:51.445Z,11.14
2023-04-18T11:15:22.243Z,11.37
2023-04-18T11:18:10.353Z,11.54
2023-04-18T11:20:40.036Z,11.66
2023-04-18T11:23:17.270Z,11.63
2023-04-18T11:25:47.135Z,11.61
2023-04-18T11:28:20.960Z,11.82
2023-04-18T11:30:49.538Z,11.93
2023-04-18T11:33:17.731Z,12.07
2023-04-18T11:35:47.550Z,11.70
2023-04-18T11:38:16.684Z,11.53
2023-04-18T11:40:48.615Z,11.36
2023-04-18T11:43:24.057Z,11.37
2023-04-18T11:45:53.805Z,11.50
2023-04-18T11:48:22.544Z,11.01
2023-04-18T11:50:50.863Z,10.79
2023-04-18T11:53:33.625Z,11.40
2023-04-18T11:56:03.606Z,11.93
2023-04-18T11:58:34.098Z,11.98
2023-04-18T12:01:16.995Z,11.64
2023-04-18T12:03:45.841Z,11.38
2023-04-18T12:06:14.064Z,10.94
2023-04-18T12:08:44.403Z,10.53
2023-04-18T12:11:21.569Z,10.15
2023-04-18T12:13:51.059Z,10.18
2023-04-18T12:16:19.152Z,10.71
2023-04-18T12:18:49.205Z,10.62
2023-04-18T12:21:22.514Z,10.76
2023-04-18T12:23:53.892Z,10.73
2023-04-18T12:26:31.939Z,10.45
2023-04-18T12:29:02.330Z,10.56
2023-04-18T12:31:30.409Z,10.93
2023-04-18T12:34:00.140Z,11.11
2023-04-18T12:36:28.821Z,11.40
2023-04-18T12:38:57.001Z,11.82
2023-04-18T12:41:25.091Z,12.35
2023-04-18T12:43:53.169Z,12.56
2023-04-18T12:46:22.640Z,12.20
2023-04-18T12:48:50.797Z,11.92
2023-04-18T12:51:18.922Z,12.02
2023-04-18T12:53:47.043Z,12.18
2023-04-18T12:56:15.117Z,12.30
2023-04-18T12:58:43.389Z,12.37
2023-04-18T13:01:11.646Z,12.94
2023-04-18T13:03:48.585Z,12.99
2023-04-18T13:06:22.594Z,13.05
2023-04-18T13:08:52.828Z,13.01
2023-04-18T13:11:22.764Z,12.96
2023-04-18T13:13:51.060Z,12.81
2023-04-18T13:16:19.204Z,12.66
2023-04-18T13:18:48.664Z,12.50
2023-04-18T13:21:16.756Z,12.42
2023-04-18T13:23:44.761Z,12.61
2023-04-18T13:26:12.892Z,12.87
2023-04-18T13:28:41.035Z,12.26
2023-04-18T13:31:09.245Z,12.41
2023-04-18T13:33:37.315Z,12.67
2023-04-18T13:36:07.433Z,12.31
2023-04-18T13:38:36.104Z,12.47
2023-04-18T13:41:12.129Z,12.57
2023-04-18T13:43:41.296Z,11.96
2023-04-18T13:46:09.471Z,11.61
2023-04-18T13:48:37.831Z,11.60
2023-04-18T13:51:07.984Z,11.72
2023-04-18T13:53:36.787Z,12.00
2023-04-18T13:56:05.010Z,11.90
2023-04-18T13:58:33.323Z,12.24
2023-04-18T14:01:01.857Z,12.41
2023-04-18T14:03:30.796Z,11.79
2023-04-18T14:05:59.395Z,11.76
2023-04-18T14:08:28.904Z,11.48
2023-04-18T14:10:56.983Z,11.43
2023-04-18T14:13:25.133Z,11.34
2023-04-18T14:15:53.947Z,11.46
2023-04-18T14:18:23.663Z,11.26
2023-04-18T14:20:51.947Z,11.04
2023-04-18T14:23:20.234Z,11.03
2023-04-18T14:25:49.690Z,11.16
2023-04-18T14:28:20.880Z,11.01
2023-04-18T14:30:49.011Z,11.00
2023-04-18T14:33:17.076Z,10.88
2023-04-18T14:35:45.253Z,11.04
2023-04-18T14:38:13.367Z,11.38
2023-04-18T14:40:41.522Z,11.19
2023-04-18T14:43:10.884Z,11.25
2023-04-18T14:45:39.133Z,11.18
2023-04-18T14:48:08.832Z,11.00
2023-04-18T14:50:39.111Z,10.95
2023-04-18T14:53:07.547Z,10.92
2023-04-18T14:55:35.833Z,10.96
2023-04-18T14:58:03.957Z,10.98
2023-04-18T15:00:33.526Z,10.97
2023-04-18T15:03:01.845Z,11.05
2023-04-18T15:05:30.101Z,10.96
2023-04-18T15:07:58.214Z,10.80
2023-04-18T15:10:26.409Z,10.70
2023-04-18T15:12:54.539Z,10.50
2023-04-18T15:15:22.828Z,10.30
2023-04-18T15:17:52.353Z,10.19
2023-04-18T15:20:22.510Z,10.25
2023-04-18T15:22:52.138Z,10.38
2023-04-18T15:25:20.276Z,10.63
2023-04-18T15:27:48.416Z,10.85
2023-04-18T15:30:16.516Z,11.00
2023-04-18T15:32:45.633Z,11.06
2023-04-18T15:35:15.260Z,10.81
2023-04-18T15:37:43.531Z,10.80
2023-04-18T15:40:16.181Z,10.85
2023-04-18T15:42:44.667Z,11.04
2023-04-18T15:45:13.331Z,11.01
2023-04-18T15:47:41.865Z,10.81
2023-04-18T15:50:11.135Z,10.61
2023-04-18T15:52:41.763Z,10.52
2023-04-18T15:55:12.304Z,10.40
2023-04-18T15:57:40.721Z,10.21
2023-04-18T16:00:15.865Z,10.12
2023-04-18T16:02:44.825Z,10.10
2023-04-18T16:05:13.719Z,10.17
2023-04-18T16:07:43.968Z,10.30
2023-04-18T16:10:12.966Z,10.22
2023-04-18T16:12:41.829Z,10.20
2023-04-18T16:15:11.128Z,10.24
2023-04-18T16:17:39.508Z,10.14
2023-04-18T16:20:09.262Z,9.91
2023-04-18T16:22:37.614Z,9.74
2023-04-18T16:25:07.808Z,9.68
2023-04-18T16:27:36.020Z,9.67
2023-04-18T16:30:04.369Z,9.66
2023-04-18T16:32:32.528Z,9.67
2023-04-18T16:35:00.571Z,9.60
2023-04-18T16:37:28.755Z,9.53
2023-04-18T16:39:56.904Z,9.46
2023-04-18T16:42:26.398Z,9.45
2023-04-18T16:44:54.774Z,9.40
2023-04-18T16:47:23.039Z,9.32
2023-04-18T16:49:51.779Z,9.27
2023-04-18T16:52:19.985Z,9.22
2023-04-18T16:54:49.719Z,9.15
2023-04-18T16:57:18.820Z,9.16
2023-04-18T16:59:48.421Z,9.22
2023-04-18T17:02:16.711Z,9.24
2023-04-18T17:04:45.038Z,9.20
2023-04-18T17:07:13.296Z,9.16
2023-04-18T17:09:41.744Z,9.11
2023-04-18T17:12:09.934Z,9.06
2023-04-18T17:14:38.150Z,9.00
2023-04-18T17:17:07.624Z,8.93
2023-04-18T17:19:36.002Z,8.91
2023-04-18T17:22:04.091Z,8.89
2023-04-18T17:24:32.334Z,8.86
2023-04-18T17:27:01.311Z,8.80
2023-04-18T17:29:29.392Z,8.73
2023-04-18T17:31:57.566Z,8.68
2023-04-18T17:34:27.011Z,8.65
2023-04-18T17:36:55.166Z,8.65
2023-04-18T17:39:23.869Z,8.62
2023-04-18T17:41:51.999Z,8.56
2023-04-18T17:44:20.070Z,8.50
2023-04-18T17:46:49.990Z,8.36
2023-04-18T17:49:18.630Z,8.29
2023-04-18T17:51:48.329Z,8.25
2023-04-18T17:54:16.498Z,8.18
2023-04-18T17:56:45.505Z,8.12
2023-04-18T17:59:13.801Z,8.06
2023-04-18T18:01:42.189Z,8.01
2023-04-18T18:04:10.617Z,7.97
2023-04-18T18:06:39.039Z,7.95
2023-04-18T18:09:08.768Z,7.92
2023-04-18T18:11:37.263Z,7.90
2023-04-18T18:14:05.867Z,7.87
2023-04-18T18:16:34.024Z,7.83
2023-04-18T18:19:02.223Z,7.76
2023-04-18T18:21:30.303Z,7.72
2023-04-18T18:23:58.333Z,7.67
2023-04-18T18:26:27.863Z,7.64
2023-04-18T18:28:55.979Z,7.60
2023-04-18T18:31:25.056Z,7.57
2023-04-18T18:33:53.375Z,7.55
2023-04-18T18:36:21.830Z,7.52
2023-04-18T18:38:49.965Z,7.47
2023-04-18T18:41:18.087Z,7.45
2023-04-18T18:43:47.457Z,7.42
2023-04-18T18:46:16.132Z,7.37
2023-04-18T18:48:44.404Z,7.32
2023-04-18T18:51:12.700Z,7.28
2023-04-18T18:53:40.820Z,7.24
2023-04-18T18:56:09.766Z,7.24
2023-04-18T18:58:39.153Z,7.21
2023-04-18T19:01:08.668Z,7.20
2023-04-18T19:03:36.906Z,7.16
2023-04-18T19:06:07.104Z,7.13
2023-04-18T19:08:36.043Z,7.15
2023-04-18T19:11:04.364Z,7.20
2023-04-18T19:13:32.453Z,7.27
2023-04-18T19:16:00.660Z,7.32
2023-04-18T19:18:30.171Z,7.34
2023-04-18T19:20:58.372Z,7.30
2023-04-18T19:23:27.819Z,7.27
2023-04-18T19:25:56.002Z,7.24
2023-04-18T19:28:24.176Z,7.20
2023-04-18T19:30:53.140Z,7.20
2023-04-18T19:33:24.257Z,7.18
2023-04-18T19:35:53.761Z,7.15
2023-04-18T19:38:21.872Z,7.08
2023-04-18T19:40:50.105Z,7.04
2023-04-18T19:43:18.104Z,7.02
2023-04-18T19:45:46.272Z,6.98
2023-04-18T19:48:14.410Z,6.94
2023-04-18T19:50:43.261Z,6.89
2023-04-18T19:53:12.632Z,6.87
2023-04-18T19:55:41.755Z,6.91
2023-04-18T19:58:09.836Z,6.94
2023-04-18T20:00:37.964Z,6.92
2023-04-18T20:03:06.369Z,6.91
2023-04-18T20:05:34.628Z,6.88
2023-04-18T20:08:02.768Z,6.84
2023-04-18T20:10:33.172Z,6.85
2023-04-18T20:13:02.219Z,6.85
2023-04-18T20:15:31.144Z,6.81
2023-04-18T20:17:59.422Z,6.78
2023-04-18T20:20:27.590Z,6.73
2023-04-18T20:22:55.805Z,6.70
2023-04-18T20:25:24.730Z,6.67
2023-04-18T20:27:54.723Z,6.65
2023-04-18T20:30:23.110Z,6.63
2023-04-18T20:32:52.217Z,6.58
2023-04-18T20:35:21.091Z,6.54
2023-04-18T20:37:49.826Z,6.53
2023-04-18T20:40:18.731Z,6.53
2023-04-18T20:42:46.832Z,6.52
2023-04-18T20:45:16.413Z,6.49
2023-04-18T20:47:44.577Z,6.47
2023-04-18T20:50:14.067Z,6.47
2023-04-18T20:52:42.919Z,6.47
2023-04-18T20:55:11.802Z,6.46
2023-04-18T20:57:39.990Z,6.43
2023-04-18T21:00:10.511Z,6.44
2023-04-18T21:02:40.213Z,6.43
2023-04-18T21:05:09.029Z,6.40
2023-04-18T21:07:37.727Z,6.43
2023-04-18T21:10:06.354Z,6.40
2023-04-18T21:12:34.459Z,6.40
2023-04-18T21:15:02.600Z,6.40
2023-04-18T21:17:30.856Z,6.39
2023-04-18T21:20:00.277Z,6.42
2023-04-18T21:22:28.374Z,6.40
2023-04-18T21:24:56.461Z,6.38
2023-04-18T21:27:24.579Z,6.34
2023-04-18T21:29:52.782Z,6.33
2023-04-18T21:32:21.121Z,6.37
2023-04-18T21:34:49.137Z,6.36
2023-04-18T21:37:18.764Z,6.35
2023-04-18T21:39:46.834Z,6.30
2023-04-18T21:42:14.950Z,6.27
2023-04-18T21:44:42.918Z,6.26
2023-04-18T21:47:11.018Z,6.25
2023-04-18T21:49:39.067Z,6.24
2023-04-18T21:52:07.731Z,6.24
2023-04-18T21:54:37.117Z,6.23
2023-04-18T21:57:06.264Z,6.17
2023-04-18T21:59:34.341Z,6.12
2023-04-18T22:02:02.550Z,6.06
2023-04-18T22:04:30.747Z,5.97
2023-04-18T22:06:58.918Z,5.94
2023-04-18T22:09:27.021Z,5.88
2023-04-18T22:11:57.672Z,5.88
2023-04-18T22:14:26.064Z,5.82
2023-04-18T22:16:54.703Z,5.77
2023-04-18T22:19:22.829Z,5.75
2023-04-18T22:21:50.950Z,5.74
2023-04-18T22:24:19.745Z,5.74
2023-04-18T22:26:47.873Z,5.75
2023-04-18T22:29:17.209Z,5.74
2023-04-18T22:31:45.391Z,5.70
2023-04-18T22:34:13.796Z,5.67
2023-04-18T22:36:43.876Z,5.68
2023-04-18T22:39:12.160Z,5.71
2023-04-18T22:41:40.401Z,5.70
2023-04-18T22:44:08.419Z,5.67
2023-04-18T22:46:38.897Z,5.63
2023-04-18T22:49:07.457Z,5.62
2023-04-18T22:51:35.559Z,5.60
2023-04-18T22:54:03.680Z,5.58
2023-04-18T22:56:31.815Z,5.57
2023-04-18T22:58:59.984Z,5.57
2023-04-18T23:01:28.099Z,5.55
2023-04-18T23:03:57.813Z,5.58
2023-04-18T23:06:27.979Z,5.58
2023-04-18T23:08:56.528Z,5.57
2023-04-18T23:11:24.741Z,5.56
2023-04-18T23:13:52.825Z,5.54
2023-04-18T23:16:21.057Z,5.53
2023-04-18T23:18:49.254Z,5.53
2023-04-18T23:21:19.217Z,5.53
2023-04-18T23:23:47.442Z,5.54
2023-04-18T23:26:16.379Z,5.55
2023-04-18T23:28:44.481Z,5.50
2023-04-18T23:31:12.660Z,5.49
2023-04-18T23:33:40.906Z,5.49
2023-04-18T23:36:09.517Z,5.46
2023-04-18T23:38:38.912Z,5.44
2023-04-18T23:41:07.137Z,5.43
2023-04-18T23:43:35.521Z,5.45
2023-04-18T23:46:03.564Z,5.46
2023-04-18T23:48:31.664Z,5.43
2023-04-18T23:50:59.803Z,5.40
2023-04-18T23:53:27.865Z,5.39
2023-04-18T23:55:57.365Z,5.38
2023-04-18T23:58:26.494Z,5.38
